Fort Wayne International Airport
KFWA : now visible

Airfield :











YOU CAN JOIN US ON...

 
LOGIN :

Register | Disclaimer

   EN    FR    IT 

 









Legend :    VFR   Marginal VFR   IFR   Intensive IFR   Very Intensive IFR
Visi :
Ceiling :
>= 8 km
>= 3000ft
5 to 8 km
1000 to 3000 ft
1500m to 5 km
500 to 1000 ft
800 to 1500m
200 to 500 ft
< 800m
< 200 ft
Symbols :   Thunderstorms  Fog  Heavy snow  Heavy precipitations  Wind > 20 kt






- Airport Elevation : 814 ft
- IATA code : FWA


KFWA - Fort Wayne International

CURRENT METAR :
  • 181154Z 15010KT 5SM RA BR BKN008 OVC014 01/00 A2991 RMK AO2 RAB24FZRAE24 CIG 006V013 SLP137 4/001 P0014 60053 70065 I1002 I6015 T00060000 10006 21028 56038 $

EXPIRED METARs :
  • 181148Z 15011KT 4SM RA BR BKN008 OVC014 01/00 A2992 RMK AO2 RAB24FZRAE24 CIG 007V013 P0012 I1002 $
  • 181125Z 14011KT 4SM RA BR OVC010 01/M01 A2992 RMK AO2 RAB24FZRAE24 PRESFR P0008 I1002 T00061006 $
  • 181054Z 14012KT 3SM FZRA BR BKN010 OVC014 00/M01 A2995 RMK AO2 CIG 007V014 PRESFR SLP151 P0021 I1006 T00001006 $
  • 181034Z 14014G20KT 3SM FZRA BR OVC012 00/M01 A2998 RMK AO2 PRESFR P0014 I1005 T00001006 $
  • 180954Z 14012KT 6SM -FZRA BR BKN011 BKN016 OVC023 M01/M02 A3003 RMK AO2 SLP177 P0008 I1005 T10061017 $

TAF KFWA
Valid from the 18 at 12:00 until the 19 at 12:00 UTC


181205Z 1812/1912 15014KT 3SM -FZRA OVC008 WS020/19040KT
FM181300 17016G23KT 3SM RA BR OVC008 WS020/20045KT
FM181700 21019G32KT 3SM RA OVC005 WS020/22050KT
FM182000 25021G35KT P6SM VCSH OVC008
FM182200 26022G35KT P6SM VCSH OVC012
FM190400 27021G31KT P6SM OVC017



MET'MAP, your aeronautical weather chart ! - Copyright ORBIFLY December 2007 - Disclaimer

ORBIFLY MET'MAP TEAM :

Programming & Development : Alexandra Zaïnal
Concept & original design : Baudouin d'Aumeries
Assistance for programming : Marc-Olivier Méhu
Technical & hardware support : Manuel Goepfert

Contact : metmap@orbifly.com




SOURCES & CREDITS :

   NOAA       Earth
Advisory